sensor_id;sensor_type;location;lat;lon;timestamp;temperature;humidity
983;DHT22;480;48.124;11.578;2023-07-28T00:00:05;18.80;99.90
983;DHT22;480;48.124;11.578;2023-07-28T00:02:34;18.80;99.90
983;DHT22;480;48.124;11.578;2023-07-28T00:05:01;18.80;99.90
983;DHT22;480;48.124;11.578;2023-07-28T00:07:28;18.80;99.90
983;DHT22;480;48.124;11.578;2023-07-28T00:09:55;18.80;99.90
983;DHT22;480;48.124;11.578;2023-07-28T00:12:22;18.70;99.90
983;DHT22;480;48.124;11.578;2023-07-28T00:14:49;18.70;99.90
983;DHT22;480;48.124;11.578;2023-07-28T00:17:16;18.70;99.90
983;DHT22;480;48.124;11.578;2023-07-28T00:19:44;18.60;99.90
983;DHT22;480;48.124;11.578;2023-07-28T00:22:11;18.60;99.90
983;DHT22;480;48.124;11.578;2023-07-28T00:24:38;18.60;99.90
983;DHT22;480;48.124;11.578;2023-07-28T00:27:06;18.60;99.90
983;DHT22;480;48.124;11.578;2023-07-28T00:29:33;18.60;99.90
983;DHT22;480;48.124;11.578;2023-07-28T00:32:00;18.60;99.90
983;DHT22;480;48.124;11.578;2023-07-28T00:34:27;18.60;99.90
983;DHT22;480;48.124;11.578;2023-07-28T00:36:55;18.60;99.90
983;DHT22;480;48.124;11.578;2023-07-28T00:39:22;18.60;99.90
983;DHT22;480;48.124;11.578;2023-07-28T00:41:49;18.60;99.90
983;DHT22;480;48.124;11.578;2023-07-28T00:44:17;18.60;99.90
983;DHT22;480;48.124;11.578;2023-07-28T00:46:45;18.70;99.90
983;DHT22;480;48.124;11.578;2023-07-28T00:49:12;18.50;99.90
983;DHT22;480;48.124;11.578;2023-07-28T00:51:40;18.40;99.90
983;DHT22;480;48.124;11.578;2023-07-28T00:54:09;18.20;99.90
983;DHT22;480;48.124;11.578;2023-07-28T00:56:37;18.20;99.90
983;DHT22;480;48.124;11.578;2023-07-28T00:59:04;18.00;99.90
983;DHT22;480;48.124;11.578;2023-07-28T01:01:31;17.80;99.90
983;DHT22;480;48.124;11.578;2023-07-28T01:03:58;17.80;99.90
983;DHT22;480;48.124;11.578;2023-07-28T01:06:30;17.80;99.90
983;DHT22;480;48.124;11.578;2023-07-28T01:09:02;17.90;99.90
983;DHT22;480;48.124;11.578;2023-07-28T01:11:32;17.90;99.90
983;DHT22;480;48.124;11.578;2023-07-28T01:13:59;18.00;99.90
983;DHT22;480;48.124;11.578;2023-07-28T01:16:26;18.00;99.90
983;DHT22;480;48.124;11.578;2023-07-28T01:18:53;18.00;99.90
983;DHT22;480;48.124;11.578;2023-07-28T01:21:22;17.90;99.90
983;DHT22;480;48.124;11.578;2023-07-28T01:23:58;18.00;99.90
983;DHT22;480;48.124;11.578;2023-07-28T01:26:31;18.10;99.90
983;DHT22;480;48.124;11.578;2023-07-28T01:28:59;18.00;99.90
983;DHT22;480;48.124;11.578;2023-07-28T01:31:27;17.90;99.90
983;DHT22;480;48.124;11.578;2023-07-28T01:33:54;18.00;99.90
983;DHT22;480;48.124;11.578;2023-07-28T01:36:21;18.00;99.90
983;DHT22;480;48.124;11.578;2023-07-28T01:38:48;18.00;99.90
983;DHT22;480;48.124;11.578;2023-07-28T01:41:15;18.00;99.90
983;DHT22;480;48.124;11.578;2023-07-28T01:43:45;18.00;99.90
983;DHT22;480;48.124;11.578;2023-07-28T01:46:12;18.10;99.90
983;DHT22;480;48.124;11.578;2023-07-28T01:48:39;18.10;99.90
983;DHT22;480;48.124;11.578;2023-07-28T01:51:06;18.10;99.90
983;DHT22;480;48.124;11.578;2023-07-28T01:53:33;18.00;99.90
983;DHT22;480;48.124;11.578;2023-07-28T01:56:00;18.10;99.90
983;DHT22;480;48.124;11.578;2023-07-28T01:58:27;18.00;99.90
983;DHT22;480;48.124;11.578;2023-07-28T02:00:55;18.00;99.90
983;DHT22;480;48.124;11.578;2023-07-28T02:03:22;17.90;99.90
983;DHT22;480;48.124;11.578;2023-07-28T02:05:51;17.90;99.90
983;DHT22;480;48.124;11.578;2023-07-28T02:08:18;17.80;99.90
983;DHT22;480;48.124;11.578;2023-07-28T02:10:45;17.80;99.90
983;DHT22;480;48.124;11.578;2023-07-28T02:13:12;17.60;99.90
983;DHT22;480;48.124;11.578;2023-07-28T02:15:39;17.50;99.90
983;DHT22;480;48.124;11.578;2023-07-28T02:18:07;17.60;99.90
983;DHT22;480;48.124;11.578;2023-07-28T02:20:34;17.50;99.90
983;DHT22;480;48.124;11.578;2023-07-28T02:23:01;17.50;99.90
983;DHT22;480;48.124;11.578;2023-07-28T02:25:28;17.50;99.90
983;DHT22;480;48.124;11.578;2023-07-28T02:27:55;17.50;99.90
983;DHT22;480;48.124;11.578;2023-07-28T02:30:23;17.30;99.90
983;DHT22;480;48.124;11.578;2023-07-28T02:32:50;17.20;99.90
983;DHT22;480;48.124;11.578;2023-07-28T02:35:18;17.10;99.90
983;DHT22;480;48.124;11.578;2023-07-28T02:37:45;17.10;99.90
983;DHT22;480;48.124;11.578;2023-07-28T02:40:12;17.10;99.90
983;DHT22;480;48.124;11.578;2023-07-28T02:42:39;17.10;99.90
983;DHT22;480;48.124;11.578;2023-07-28T02:45:07;17.10;99.90
983;DHT22;480;48.124;11.578;2023-07-28T02:47:35;17.10;99.90
983;DHT22;480;48.124;11.578;2023-07-28T02:50:03;17.10;99.90
983;DHT22;480;48.124;11.578;2023-07-28T02:52:32;17.20;99.90
983;DHT22;480;48.124;11.578;2023-07-28T02:54:59;17.20;99.90
983;DHT22;480;48.124;11.578;2023-07-28T02:57:26;17.30;99.90
983;DHT22;480;48.124;11.578;2023-07-28T02:59:53;17.10;99.90
983;DHT22;480;48.124;11.578;2023-07-28T03:02:20;17.10;99.90
983;DHT22;480;48.124;11.578;2023-07-28T03:04:47;17.10;99.90
983;DHT22;480;48.124;11.578;2023-07-28T03:07:14;17.10;99.90
983;DHT22;480;48.124;11.578;2023-07-28T03:09:43;16.90;99.90
983;DHT22;480;48.124;11.578;2023-07-28T03:12:10;16.90;99.90
983;DHT22;480;48.124;11.578;2023-07-28T03:14:37;17.00;99.90
983;DHT22;480;48.124;11.578;2023-07-28T03:17:05;17.00;99.90
983;DHT22;480;48.124;11.578;2023-07-28T03:19:32;17.10;99.90
983;DHT22;480;48.124;11.578;2023-07-28T03:21:59;17.10;99.90
983;DHT22;480;48.124;11.578;2023-07-28T03:24:26;17.10;99.90
983;DHT22;480;48.124;11.578;2023-07-28T03:26:54;17.20;99.90
983;DHT22;480;48.124;11.578;2023-07-28T03:29:22;17.30;99.90
983;DHT22;480;48.124;11.578;2023-07-28T03:31:49;17.30;99.90
983;DHT22;480;48.124;11.578;2023-07-28T03:34:16;17.20;99.90
983;DHT22;480;48.124;11.578;2023-07-28T03:36:43;17.30;99.90
983;DHT22;480;48.124;11.578;2023-07-28T03:39:10;17.20;99.90
983;DHT22;480;48.124;11.578;2023-07-28T03:41:37;17.30;99.90
983;DHT22;480;48.124;11.578;2023-07-28T03:44:05;17.30;99.90
983;DHT22;480;48.124;11.578;2023-07-28T03:46:33;17.40;99.90
983;DHT22;480;48.124;11.578;2023-07-28T03:49:00;17.40;99.90
983;DHT22;480;48.124;11.578;2023-07-28T03:51:26;17.30;99.90
983;DHT22;480;48.124;11.578;2023-07-28T03:53:53;17.30;99.90
983;DHT22;480;48.124;11.578;2023-07-28T03:56:20;17.30;99.90
983;DHT22;480;48.124;11.578;2023-07-28T03:58:47;17.30;99.90
983;DHT22;480;48.124;11.578;2023-07-28T04:01:16;17.40;99.90
983;DHT22;480;48.124;11.578;2023-07-28T04:03:43;17.40;99.90
983;DHT22;480;48.124;11.578;2023-07-28T04:06:11;17.40;99.90
983;DHT22;480;48.124;11.578;2023-07-28T04:08:38;17.40;99.90
983;DHT22;480;48.124;11.578;2023-07-28T04:11:05;17.40;99.90
983;DHT22;480;48.124;11.578;2023-07-28T04:13:33;17.50;99.90
983;DHT22;480;48.124;11.578;2023-07-28T04:16:00;17.50;99.90
983;DHT22;480;48.124;11.578;2023-07-28T04:18:29;17.60;99.90
983;DHT22;480;48.124;11.578;2023-07-28T04:20:57;17.50;99.90
983;DHT22;480;48.124;11.578;2023-07-28T04:23:24;17.60;99.90
983;DHT22;480;48.124;11.578;2023-07-28T04:25:51;17.50;99.90
983;DHT22;480;48.124;11.578;2023-07-28T04:28:18;17.60;99.90
983;DHT22;480;48.124;11.578;2023-07-28T04:30:45;17.70;99.90
983;DHT22;480;48.124;11.578;2023-07-28T04:33:12;17.70;99.90
983;DHT22;480;48.124;11.578;2023-07-28T04:35:41;17.70;99.90
983;DHT22;480;48.124;11.578;2023-07-28T04:38:08;17.80;99.90
983;DHT22;480;48.124;11.578;2023-07-28T04:40:34;17.90;99.90
983;DHT22;480;48.124;11.578;2023-07-28T04:43:02;17.90;99.90
983;DHT22;480;48.124;11.578;2023-07-28T04:45:29;18.00;99.90
983;DHT22;480;48.124;11.578;2023-07-28T04:47:56;18.00;99.90
983;DHT22;480;48.124;11.578;2023-07-28T04:50:23;18.00;99.90
983;DHT22;480;48.124;11.578;2023-07-28T04:52:52;17.90;99.90
983;DHT22;480;48.124;11.578;2023-07-28T04:55:19;17.90;99.90
983;DHT22;480;48.124;11.578;2023-07-28T04:57:46;18.00;99.90
983;DHT22;480;48.124;11.578;2023-07-28T05:00:14;18.00;99.90
983;DHT22;480;48.124;11.578;2023-07-28T05:02:41;18.00;99.90
983;DHT22;480;48.124;11.578;2023-07-28T05:05:08;17.90;99.90
983;DHT22;480;48.124;11.578;2023-07-28T05:07:35;17.90;99.90
983;DHT22;480;48.124;11.578;2023-07-28T05:10:04;18.00;99.90
983;DHT22;480;48.124;11.578;2023-07-28T05:12:31;17.90;99.90
983;DHT22;480;48.124;11.578;2023-07-28T05:14:59;18.00;99.90
983;DHT22;480;48.124;11.578;2023-07-28T05:17:26;18.10;99.90
983;DHT22;480;48.124;11.578;2023-07-28T05:19:53;18.10;99.90
983;DHT22;480;48.124;11.578;2023-07-28T05:22:20;18.20;99.90
983;DHT22;480;48.124;11.578;2023-07-28T05:24:47;18.40;99.90
983;DHT22;480;48.124;11.578;2023-07-28T05:27:15;18.40;99.90
983;DHT22;480;48.124;11.578;2023-07-28T05:29:42;18.50;99.90
983;DHT22;480;48.124;11.578;2023-07-28T05:32:09;18.60;99.90
983;DHT22;480;48.124;11.578;2023-07-28T05:34:36;18.50;99.90
983;DHT22;480;48.124;11.578;2023-07-28T05:37:04;18.50;99.90
983;DHT22;480;48.124;11.578;2023-07-28T05:39:31;18.40;99.90
983;DHT22;480;48.124;11.578;2023-07-28T05:41:58;18.50;99.90
983;DHT22;480;48.124;11.578;2023-07-28T05:44:27;18.60;99.90
983;DHT22;480;48.124;11.578;2023-07-28T05:46:54;18.70;99.90
983;DHT22;480;48.124;11.578;2023-07-28T05:49:21;18.60;99.90
983;DHT22;480;48.124;11.578;2023-07-28T05:51:48;18.60;99.90
983;DHT22;480;48.124;11.578;2023-07-28T05:54:15;18.60;99.90
983;DHT22;480;48.124;11.578;2023-07-28T05:56:42;18.70;99.90
983;DHT22;480;48.124;11.578;2023-07-28T05:59:09;18.90;99.90
983;DHT22;480;48.124;11.578;2023-07-28T06:01:38;18.90;99.90
983;DHT22;480;48.124;11.578;2023-07-28T06:04:05;18.90;99.90
983;DHT22;480;48.124;11.578;2023-07-28T06:06:32;18.90;99.90
983;DHT22;480;48.124;11.578;2023-07-28T06:08:59;18.90;99.90
983;DHT22;480;48.124;11.578;2023-07-28T06:11:26;19.00;99.90
983;DHT22;480;48.124;11.578;2023-07-28T06:13:53;19.10;99.90
983;DHT22;480;48.124;11.578;2023-07-28T06:16:20;18.90;99.90
983;DHT22;480;48.124;11.578;2023-07-28T06:18:49;18.90;99.90
983;DHT22;480;48.124;11.578;2023-07-28T06:21:16;19.00;99.90
983;DHT22;480;48.124;11.578;2023-07-28T06:23:43;19.00;99.90
983;DHT22;480;48.124;11.578;2023-07-28T06:26:10;19.10;99.90
983;DHT22;480;48.124;11.578;2023-07-28T06:28:37;19.20;99.90
983;DHT22;480;48.124;11.578;2023-07-28T06:31:04;19.30;99.90
983;DHT22;480;48.124;11.578;2023-07-28T06:33:31;19.20;99.90
983;DHT22;480;48.124;11.578;2023-07-28T06:36:00;19.30;99.90
983;DHT22;480;48.124;11.578;2023-07-28T06:38:27;19.40;99.90
983;DHT22;480;48.124;11.578;2023-07-28T06:40:54;19.50;99.90
983;DHT22;480;48.124;11.578;2023-07-28T06:43:21;19.50;99.90
983;DHT22;480;48.124;11.578;2023-07-28T06:45:50;19.70;99.90
983;DHT22;480;48.124;11.578;2023-07-28T06:48:17;19.80;99.90
983;DHT22;480;48.124;11.578;2023-07-28T06:50:44;19.90;99.90
983;DHT22;480;48.124;11.578;2023-07-28T06:53:13;20.10;99.90
983;DHT22;480;48.124;11.578;2023-07-28T06:55:40;20.20;99.90
983;DHT22;480;48.124;11.578;2023-07-28T06:58:07;20.40;99.90
983;DHT22;480;48.124;11.578;2023-07-28T07:00:35;20.40;99.90
983;DHT22;480;48.124;11.578;2023-07-28T07:03:02;20.30;99.90
983;DHT22;480;48.124;11.578;2023-07-28T07:05:29;20.30;99.90
983;DHT22;480;48.124;11.578;2023-07-28T07:07:56;20.40;99.90
983;DHT22;480;48.124;11.578;2023-07-28T07:10:24;20.40;99.90
983;DHT22;480;48.124;11.578;2023-07-28T07:12:51;20.60;99.90
983;DHT22;480;48.124;11.578;2023-07-28T07:15:18;20.80;99.90
983;DHT22;480;48.124;11.578;2023-07-28T07:17:45;21.00;99.90
983;DHT22;480;48.124;11.578;2023-07-28T07:20:12;21.20;99.90
983;DHT22;480;48.124;11.578;2023-07-28T07:22:40;21.10;99.90
983;DHT22;480;48.124;11.578;2023-07-28T07:25:08;21.00;99.90
983;DHT22;480;48.124;11.578;2023-07-28T07:27:36;21.10;99.90
983;DHT22;480;48.124;11.578;2023-07-28T07:30:04;21.20;99.90
983;DHT22;480;48.124;11.578;2023-07-28T07:32:32;21.40;99.90
983;DHT22;480;48.124;11.578;2023-07-28T07:35:00;21.50;99.90
983;DHT22;480;48.124;11.578;2023-07-28T07:37:27;21.70;99.90
983;DHT22;480;48.124;11.578;2023-07-28T07:39:54;21.80;99.90
983;DHT22;480;48.124;11.578;2023-07-28T07:42:21;21.80;99.90
983;DHT22;480;48.124;11.578;2023-07-28T07:44:50;21.70;99.90
983;DHT22;480;48.124;11.578;2023-07-28T07:47:19;21.90;99.90
983;DHT22;480;48.124;11.578;2023-07-28T07:49:46;22.00;99.90
983;DHT22;480;48.124;11.578;2023-07-28T07:52:13;22.20;99.90
983;DHT22;480;48.124;11.578;2023-07-28T07:54:40;22.30;99.90
983;DHT22;480;48.124;11.578;2023-07-28T07:57:07;22.50;99.90
983;DHT22;480;48.124;11.578;2023-07-28T07:59:34;22.50;99.90
983;DHT22;480;48.124;11.578;2023-07-28T08:02:03;22.50;99.90
983;DHT22;480;48.124;11.578;2023-07-28T08:04:30;22.50;99.90
983;DHT22;480;48.124;11.578;2023-07-28T08:06:58;22.70;99.90
983;DHT22;480;48.124;11.578;2023-07-28T08:09:26;22.90;99.90
983;DHT22;480;48.124;11.578;2023-07-28T08:11:54;22.90;99.90
983;DHT22;480;48.124;11.578;2023-07-28T08:14:21;22.90;99.90
983;DHT22;480;48.124;11.578;2023-07-28T08:16:48;22.90;99.90
983;DHT22;480;48.124;11.578;2023-07-28T08:19:16;23.00;99.90
983;DHT22;480;48.124;11.578;2023-07-28T08:21:43;23.10;99.90
983;DHT22;480;48.124;11.578;2023-07-28T08:24:10;23.00;99.90
983;DHT22;480;48.124;11.578;2023-07-28T08:26:38;23.10;99.90
983;DHT22;480;48.124;11.578;2023-07-28T08:29:05;23.20;99.90
983;DHT22;480;48.124;11.578;2023-07-28T08:31:32;23.20;99.90
983;DHT22;480;48.124;11.578;2023-07-28T08:33:59;23.30;99.90
983;DHT22;480;48.124;11.578;2023-07-28T08:36:28;23.50;99.90
983;DHT22;480;48.124;11.578;2023-07-28T08:38:55;23.70;99.90
983;DHT22;480;48.124;11.578;2023-07-28T08:41:22;23.60;99.90
983;DHT22;480;48.124;11.578;2023-07-28T08:43:49;23.60;99.90
983;DHT22;480;48.124;11.578;2023-07-28T08:46:17;23.70;99.90
983;DHT22;480;48.124;11.578;2023-07-28T08:48:45;23.70;99.90
983;DHT22;480;48.124;11.578;2023-07-28T08:51:12;23.70;99.90
983;DHT22;480;48.124;11.578;2023-07-28T08:53:41;23.80;99.90
983;DHT22;480;48.124;11.578;2023-07-28T08:56:08;24.00;99.90
983;DHT22;480;48.124;11.578;2023-07-28T08:58:36;23.90;99.90
983;DHT22;480;48.124;11.578;2023-07-28T09:01:03;24.00;99.90
983;DHT22;480;48.124;11.578;2023-07-28T09:03:31;24.20;99.90
983;DHT22;480;48.124;11.578;2023-07-28T09:06:00;24.30;99.90
983;DHT22;480;48.124;11.578;2023-07-28T09:08:27;24.30;99.90
983;DHT22;480;48.124;11.578;2023-07-28T09:11:02;24.20;99.90
983;DHT22;480;48.124;11.578;2023-07-28T09:13:36;24.10;99.90
983;DHT22;480;48.124;11.578;2023-07-28T09:16:03;24.10;99.90
983;DHT22;480;48.124;11.578;2023-07-28T09:18:30;24.00;99.90
983;DHT22;480;48.124;11.578;2023-07-28T09:20:59;23.90;99.90
983;DHT22;480;48.124;11.578;2023-07-28T09:23:29;23.80;99.90
983;DHT22;480;48.124;11.578;2023-07-28T09:26:00;23.80;99.90
983;DHT22;480;48.124;11.578;2023-07-28T09:28:39;23.60;99.90
983;DHT22;480;48.124;11.578;2023-07-28T09:31:07;23.60;99.90
983;DHT22;480;48.124;11.578;2023-07-28T09:33:36;23.60;99.90
983;DHT22;480;48.124;11.578;2023-07-28T09:36:08;23.50;99.90
983;DHT22;480;48.124;11.578;2023-07-28T09:38:37;23.50;99.90
983;DHT22;480;48.124;11.578;2023-07-28T09:41:07;23.60;99.90
983;DHT22;480;48.124;11.578;2023-07-28T09:43:36;23.60;99.90
983;DHT22;480;48.124;11.578;2023-07-28T09:46:04;23.60;99.90
983;DHT22;480;48.124;11.578;2023-07-28T09:48:32;23.60;99.90
983;DHT22;480;48.124;11.578;2023-07-28T09:51:05;23.50;99.90
983;DHT22;480;48.124;11.578;2023-07-28T09:53:37;23.40;99.90
983;DHT22;480;48.124;11.578;2023-07-28T09:56:09;23.40;99.90
983;DHT22;480;48.124;11.578;2023-07-28T09:58:38;23.40;99.90
983;DHT22;480;48.124;11.578;2023-07-28T10:01:09;23.40;99.90
983;DHT22;480;48.124;11.578;2023-07-28T10:03:37;23.40;99.90
983;DHT22;480;48.124;11.578;2023-07-28T10:06:04;23.60;99.90
983;DHT22;480;48.124;11.578;2023-07-28T10:08:32;23.60;99.90
983;DHT22;480;48.124;11.578;2023-07-28T10:10:59;23.80;99.90
983;DHT22;480;48.124;11.578;2023-07-28T10:13:39;24.00;99.90
983;DHT22;480;48.124;11.578;2023-07-28T10:16:07;24.20;99.90
983;DHT22;480;48.124;11.578;2023-07-28T10:18:35;24.10;99.90
983;DHT22;480;48.124;11.578;2023-07-28T10:21:05;24.10;99.90
983;DHT22;480;48.124;11.578;2023-07-28T10:23:34;24.10;99.90
983;DHT22;480;48.124;11.578;2023-07-28T10:26:01;24.20;99.90
983;DHT22;480;48.124;11.578;2023-07-28T10:28:34;24.20;99.90
983;DHT22;480;48.124;11.578;2023-07-28T10:31:05;24.10;99.90
983;DHT22;480;48.124;11.578;2023-07-28T10:33:34;24.10;99.90
983;DHT22;480;48.124;11.578;2023-07-28T10:36:12;24.10;99.90
983;DHT22;480;48.124;11.578;2023-07-28T10:38:40;24.10;99.90
983;DHT22;480;48.124;11.578;2023-07-28T10:41:14;24.00;99.90
983;DHT22;480;48.124;11.578;2023-07-28T10:43:45;23.80;99.90
983;DHT22;480;48.124;11.578;2023-07-28T10:46:16;23.90;99.90
983;DHT22;480;48.124;11.578;2023-07-28T10:48:45;23.90;99.90
983;DHT22;480;48.124;11.578;2023-07-28T10:51:20;23.80;99.90
983;DHT22;480;48.124;11.578;2023-07-28T10:53:50;23.90;99.90
983;DHT22;480;48.124;11.578;2023-07-28T10:56:17;23.90;99.90
983;DHT22;480;48.124;11.578;2023-07-28T10:58:57;23.90;99.90
983;DHT22;480;48.124;11.578;2023-07-28T11:01:30;24.00;99.90
983;DHT22;480;48.124;11.578;2023-07-28T11:04:06;24.10;99.90
983;DHT22;480;48.124;11.578;2023-07-28T11:06:34;24.00;99.90
983;DHT22;480;48.124;11.578;2023-07-28T11:09:03;24.10;99.90
983;DHT22;480;48.124;11.578;2023-07-28T11:11:32;24.20;99.90
983;DHT22;480;48.124;11.578;2023-07-28T11:14:01;24.10;99.90
983;DHT22;480;48.124;11.578;2023-07-28T11:16:28;24.20;99.90
983;DHT22;480;48.124;11.578;2023-07-28T11:18:55;24.40;99.90
983;DHT22;480;48.124;11.578;2023-07-28T11:21:24;24.50;99.90
983;DHT22;480;48.124;11.578;2023-07-28T11:23:51;24.70;99.90
983;DHT22;480;48.124;11.578;2023-07-28T11:26:19;24.80;99.90
983;DHT22;480;48.124;11.578;2023-07-28T11:28:47;24.70;99.90
983;DHT22;480;48.124;11.578;2023-07-28T11:31:18;24.70;99.90
983;DHT22;480;48.124;11.578;2023-07-28T11:33:51;24.60;99.90
983;DHT22;480;48.124;11.578;2023-07-28T11:36:22;24.40;99.90
983;DHT22;480;48.124;11.578;2023-07-28T11:38:50;24.40;99.90
983;DHT22;480;48.124;11.578;2023-07-28T11:41:17;24.50;99.90
983;DHT22;480;48.124;11.578;2023-07-28T11:43:45;24.60;99.90
983;DHT22;480;48.124;11.578;2023-07-28T11:46:33;24.50;99.90
983;DHT22;480;48.124;11.578;2023-07-28T11:49:08;24.60;99.90
983;DHT22;480;48.124;11.578;2023-07-28T11:51:38;24.70;99.90
983;DHT22;480;48.124;11.578;2023-07-28T11:54:06;24.80;99.90
983;DHT22;480;48.124;11.578;2023-07-28T11:56:33;24.90;99.90
983;DHT22;480;48.124;11.578;2023-07-28T11:59:01;25.20;99.90
983;DHT22;480;48.124;11.578;2023-07-28T12:01:29;25.30;99.90
983;DHT22;480;48.124;11.578;2023-07-28T12:03:58;25.30;99.90
983;DHT22;480;48.124;11.578;2023-07-28T12:06:26;25.30;99.90
983;DHT22;480;48.124;11.578;2023-07-28T12:09:04;25.40;99.90
983;DHT22;480;48.124;11.578;2023-07-28T12:11:34;25.50;99.90
983;DHT22;480;48.124;11.578;2023-07-28T12:14:01;25.30;99.90
983;DHT22;480;48.124;11.578;2023-07-28T12:16:48;25.30;99.90
983;DHT22;480;48.124;11.578;2023-07-28T12:19:17;25.30;99.90
983;DHT22;480;48.124;11.578;2023-07-28T12:21:44;25.40;99.90
983;DHT22;480;48.124;11.578;2023-07-28T12:24:11;25.60;99.90
983;DHT22;480;48.124;11.578;2023-07-28T12:26:38;25.70;99.90
983;DHT22;480;48.124;11.578;2023-07-28T12:29:06;25.70;99.90
983;DHT22;480;48.124;11.578;2023-07-28T12:31:33;25.60;99.90
983;DHT22;480;48.124;11.578;2023-07-28T12:34:00;25.60;99.90
983;DHT22;480;48.124;11.578;2023-07-28T12:36:29;25.60;99.90
983;DHT22;480;48.124;11.578;2023-07-28T12:38:57;25.40;99.90
983;DHT22;480;48.124;11.578;2023-07-28T12:41:24;25.50;99.90
983;DHT22;480;48.124;11.578;2023-07-28T12:43:51;25.30;99.90
983;DHT22;480;48.124;11.578;2023-07-28T12:46:18;25.20;99.90
983;DHT22;480;48.124;11.578;2023-07-28T12:48:45;25.10;99.90
983;DHT22;480;48.124;11.578;2023-07-28T12:51:12;25.40;99.90
983;DHT22;480;48.124;11.578;2023-07-28T12:53:42;25.70;99.90
983;DHT22;480;48.124;11.578;2023-07-28T12:56:09;26.00;99.90
983;DHT22;480;48.124;11.578;2023-07-28T12:58:36;26.10;99.90
983;DHT22;480;48.124;11.578;2023-07-28T13:01:03;25.90;99.90
983;DHT22;480;48.124;11.578;2023-07-28T13:03:30;25.90;99.90
983;DHT22;480;48.124;11.578;2023-07-28T13:05:57;26.00;99.90
983;DHT22;480;48.124;11.578;2023-07-28T13:08:24;25.90;99.90
983;DHT22;480;48.124;11.578;2023-07-28T13:10:53;25.70;99.90
983;DHT22;480;48.124;11.578;2023-07-28T13:13:20;25.70;99.90
983;DHT22;480;48.124;11.578;2023-07-28T13:15:47;25.90;99.90
983;DHT22;480;48.124;11.578;2023-07-28T13:18:14;25.90;99.90
983;DHT22;480;48.124;11.578;2023-07-28T13:20:41;26.00;99.90
983;DHT22;480;48.124;11.578;2023-07-28T13:23:08;26.10;99.90
983;DHT22;480;48.124;11.578;2023-07-28T13:25:35;26.10;99.90
983;DHT22;480;48.124;11.578;2023-07-28T13:28:04;26.00;99.90
983;DHT22;480;48.124;11.578;2023-07-28T13:30:31;25.90;99.90
983;DHT22;480;48.124;11.578;2023-07-28T13:32:58;25.90;99.90
983;DHT22;480;48.124;11.578;2023-07-28T13:35:26;25.80;99.90
983;DHT22;480;48.124;11.578;2023-07-28T13:37:53;25.90;99.90
983;DHT22;480;48.124;11.578;2023-07-28T13:40:21;25.80;99.90
983;DHT22;480;48.124;11.578;2023-07-28T13:42:48;25.60;99.90
983;DHT22;480;48.124;11.578;2023-07-28T13:45:16;25.50;99.90
983;DHT22;480;48.124;11.578;2023-07-28T13:47:43;25.50;99.90
983;DHT22;480;48.124;11.578;2023-07-28T13:50:10;25.50;99.90
983;DHT22;480;48.124;11.578;2023-07-28T13:52:37;25.50;99.90
983;DHT22;480;48.124;11.578;2023-07-28T13:55:04;25.50;99.90
983;DHT22;480;48.124;11.578;2023-07-28T13:57:32;25.20;99.90
983;DHT22;480;48.124;11.578;2023-07-28T13:59:59;25.10;99.90
983;DHT22;480;48.124;11.578;2023-07-28T14:02:28;25.00;99.90
983;DHT22;480;48.124;11.578;2023-07-28T14:04:55;25.00;99.90
983;DHT22;480;48.124;11.578;2023-07-28T14:07:23;24.80;99.90
983;DHT22;480;48.124;11.578;2023-07-28T14:09:50;24.70;99.90
983;DHT22;480;48.124;11.578;2023-07-28T14:12:17;24.50;99.90
983;DHT22;480;48.124;11.578;2023-07-28T14:14:45;24.50;99.90
983;DHT22;480;48.124;11.578;2023-07-28T14:17:12;24.30;99.90
983;DHT22;480;48.124;11.578;2023-07-28T14:19:40;24.20;99.90
983;DHT22;480;48.124;11.578;2023-07-28T14:22:07;24.00;99.90
983;DHT22;480;48.124;11.578;2023-07-28T14:24:35;23.60;99.90
983;DHT22;480;48.124;11.578;2023-07-28T14:27:02;23.00;99.90
983;DHT22;480;48.124;11.578;2023-07-28T14:29:30;22.70;99.90
983;DHT22;480;48.124;11.578;2023-07-28T14:31:57;22.30;99.90
983;DHT22;480;48.124;11.578;2023-07-28T14:34:24;22.10;99.90
983;DHT22;480;48.124;11.578;2023-07-28T14:36:52;21.80;99.90
983;DHT22;480;48.124;11.578;2023-07-28T14:39:19;21.60;99.90
983;DHT22;480;48.124;11.578;2023-07-28T14:41:46;21.60;99.90
983;DHT22;480;48.124;11.578;2023-07-28T14:44:13;21.50;99.90
983;DHT22;480;48.124;11.578;2023-07-28T14:46:42;21.40;99.90
983;DHT22;480;48.124;11.578;2023-07-28T14:49:09;21.50;99.90
983;DHT22;480;48.124;11.578;2023-07-28T14:51:36;21.60;99.90
983;DHT22;480;48.124;11.578;2023-07-28T14:54:04;21.80;99.90
983;DHT22;480;48.124;11.578;2023-07-28T14:56:31;22.00;99.90
983;DHT22;480;48.124;11.578;2023-07-28T14:58:59;22.10;99.90
983;DHT22;480;48.124;11.578;2023-07-28T15:01:28;22.20;99.90
983;DHT22;480;48.124;11.578;2023-07-28T15:03:56;22.50;99.90
983;DHT22;480;48.124;11.578;2023-07-28T15:06:24;23.00;99.90
983;DHT22;480;48.124;11.578;2023-07-28T15:08:52;23.50;99.90
983;DHT22;480;48.124;11.578;2023-07-28T15:11:20;23.90;99.90
983;DHT22;480;48.124;11.578;2023-07-28T15:13:47;24.30;99.90
983;DHT22;480;48.124;11.578;2023-07-28T15:16:14;24.50;99.90
983;DHT22;480;48.124;11.578;2023-07-28T15:18:41;24.50;99.90
983;DHT22;480;48.124;11.578;2023-07-28T15:21:08;24.40;99.90
983;DHT22;480;48.124;11.578;2023-07-28T15:23:36;24.30;99.90
983;DHT22;480;48.124;11.578;2023-07-28T15:26:03;24.40;99.90
983;DHT22;480;48.124;11.578;2023-07-28T15:28:32;24.20;99.90
983;DHT22;480;48.124;11.578;2023-07-28T15:30:59;24.20;99.90
983;DHT22;480;48.124;11.578;2023-07-28T15:33:26;24.30;99.90
983;DHT22;480;48.124;11.578;2023-07-28T15:35:54;24.30;99.90
983;DHT22;480;48.124;11.578;2023-07-28T15:38:21;24.30;99.90
983;DHT22;480;48.124;11.578;2023-07-28T15:40:48;24.40;99.90
983;DHT22;480;48.124;11.578;2023-07-28T15:43:16;24.20;99.90
983;DHT22;480;48.124;11.578;2023-07-28T15:45:44;24.40;99.90
983;DHT22;480;48.124;11.578;2023-07-28T15:48:17;24.60;99.90
983;DHT22;480;48.124;11.578;2023-07-28T15:50:45;25.30;99.90
983;DHT22;480;48.124;11.578;2023-07-28T15:53:13;25.70;99.90
983;DHT22;480;48.124;11.578;2023-07-28T15:55:40;25.70;99.90
983;DHT22;480;48.124;11.578;2023-07-28T15:58:08;25.60;99.90
983;DHT22;480;48.124;11.578;2023-07-28T16:00:35;25.50;99.90
983;DHT22;480;48.124;11.578;2023-07-28T16:03:04;25.50;99.90
983;DHT22;480;48.124;11.578;2023-07-28T16:05:31;25.30;99.90
983;DHT22;480;48.124;11.578;2023-07-28T16:08:00;25.50;99.90
983;DHT22;480;48.124;11.578;2023-07-28T16:10:27;25.60;99.90
983;DHT22;480;48.124;11.578;2023-07-28T16:12:54;25.60;99.90
983;DHT22;480;48.124;11.578;2023-07-28T16:15:23;25.60;99.90
983;DHT22;480;48.124;11.578;2023-07-28T16:17:52;25.80;99.90
983;DHT22;480;48.124;11.578;2023-07-28T16:20:20;25.80;99.90